createdAt,value
2022-11-29T00:01:01.293Z,45.65
2022-11-29T00:03:28.622Z,36.55
2022-11-29T00:05:55.950Z,22.33
2022-11-29T00:08:23.898Z,22.30
2022-11-29T00:10:50.891Z,18.42
2022-11-29T00:13:18.079Z,26.33
2022-11-29T00:15:44.886Z,28.67
2022-11-29T00:18:11.720Z,25.23
2022-11-29T00:20:39.518Z,33.78
2022-11-29T00:23:06.486Z,34.80
2022-11-29T00:25:33.484Z,29.75
2022-11-29T00:28:00.326Z,24.80
2022-11-29T00:30:28.118Z,32.97
2022-11-29T00:32:55.214Z,30.60
2022-11-29T00:35:22.019Z,36.58
2022-11-29T00:37:48.827Z,38.05
2022-11-29T00:40:15.676Z,30.27
2022-11-29T00:42:42.539Z,30.75
2022-11-29T00:45:09.819Z,50.55
2022-11-29T00:47:37.072Z,38.88
2022-11-29T00:50:04.725Z,28.33
2022-11-29T00:52:31.575Z,24.25
2022-11-29T00:54:58.381Z,32.25
2022-11-29T00:57:25.241Z,35.20
2022-11-29T00:59:52.027Z,32.67
2022-11-29T01:02:18.858Z,34.00
2022-11-29T01:04:46.044Z,34.40
2022-11-29T01:07:13.181Z,44.60
2022-11-29T01:09:40.179Z,41.10
2022-11-29T01:12:07.174Z,32.05
2022-11-29T01:14:34.037Z,34.03
2022-11-29T01:17:00.937Z,33.90
2022-11-29T01:19:27.770Z,29.67
2022-11-29T01:21:54.604Z,25.20
2022-11-29T01:24:22.303Z,29.45
2022-11-29T01:26:49.123Z,37.80
2022-11-29T01:29:15.906Z,24.50
2022-11-29T01:31:42.868Z,42.97
2022-11-29T01:34:10.707Z,23.88
2022-11-29T01:36:37.579Z,28.40
2022-11-29T01:39:05.647Z,33.65
2022-11-29T01:41:35.112Z,27.85
2022-11-29T01:44:13.253Z,32.58
2022-11-29T01:46:45.582Z,34.45
2022-11-29T01:49:17.494Z,32.15
2022-11-29T01:52:00.737Z,33.95
2022-11-29T01:54:29.956Z,41.75
2022-11-29T01:56:58.424Z,54.42
2022-11-29T01:59:28.348Z,35.47
2022-11-29T02:02:12.097Z,65.28
2022-11-29T02:04:41.667Z,34.90
2022-11-29T02:07:09.305Z,35.45
2022-11-29T02:09:36.095Z,30.52
2022-11-29T02:12:21.055Z,33.70
2022-11-29T02:15:06.687Z,30.60
2022-11-29T02:17:33.457Z,22.27
2022-11-29T02:20:10.328Z,36.90
2022-11-29T02:23:15.030Z,29.15
2022-11-29T02:26:03.086Z,34.13
2022-11-29T02:29:04.232Z,49.17
2022-11-29T02:31:56.064Z,30.38
2022-11-29T02:34:43.295Z,41.38
2022-11-29T02:37:39.625Z,40.00
2022-11-29T02:40:06.371Z,41.78
2022-11-29T02:42:56.157Z,72.32
2022-11-29T02:45:57.632Z,49.25
2022-11-29T02:48:47.041Z,36.38
2022-11-29T02:51:13.774Z,46.78
2022-11-29T02:54:22.358Z,35.55
2022-11-29T02:57:14.503Z,20.23
2022-11-29T02:59:55.866Z,29.45
2022-11-29T03:02:38.381Z,51.25
2022-11-29T03:05:42.564Z,44.78
2022-11-29T03:08:25.121Z,29.40
2022-11-29T03:11:29.539Z,45.15
2022-11-29T03:14:24.091Z,33.83
2022-11-29T03:17:17.265Z,34.47
2022-11-29T03:20:14.030Z,41.72
2022-11-29T03:22:58.930Z,61.20
2022-11-29T03:25:35.979Z,49.38
2022-11-29T03:28:38.851Z,35.92
2022-11-29T03:31:34.563Z,29.98
2022-11-29T03:34:23.974Z,29.00
2022-11-29T03:36:58.554Z,40.35
2022-11-29T03:39:51.681Z,42.35
2022-11-29T03:42:35.418Z,49.88
2022-11-29T03:45:09.068Z,42.78
2022-11-29T03:48:00.032Z,48.45
2022-11-29T03:50:53.641Z,40.22
2022-11-29T03:53:23.870Z,53.08
2022-11-29T03:55:58.787Z,65.38
2022-11-29T03:58:52.170Z,48.55
2022-11-29T04:01:21.848Z,30.75
2022-11-29T04:04:29.877Z,30.02
2022-11-29T04:07:16.325Z,49.58
2022-11-29T04:09:55.160Z,65.25
2022-11-29T04:12:34.305Z,34.80
2022-11-29T04:15:25.836Z,40.97
2022-11-29T04:18:13.902Z,52.65
2022-11-29T04:20:52.968Z,36.95
2022-11-29T04:24:08.023Z,34.28
2022-11-29T04:26:54.072Z,35.05
2022-11-29T04:29:29.847Z,26.30
2022-11-29T04:32:22.818Z,30.52
2022-11-29T04:35:30.900Z,29.48
2022-11-29T04:38:19.527Z,23.85
2022-11-29T04:41:23.462Z,28.38
2022-11-29T04:43:58.814Z,20.85
2022-11-29T04:46:59.634Z,17.60
2022-11-29T04:50:00.336Z,25.98
2022-11-29T04:52:53.158Z,21.73
2022-11-29T04:55:49.635Z,25.08
2022-11-29T04:58:39.533Z,39.28
2022-11-29T05:01:22.013Z,18.33
2022-11-29T05:03:57.369Z,18.08
2022-11-29T05:06:43.462Z,18.23
2022-11-29T05:09:26.583Z,18.83
2022-11-29T05:12:14.942Z,27.15
2022-11-29T05:14:53.718Z,15.75
2022-11-29T05:17:39.004Z,17.63
2022-11-29T05:20:39.690Z,23.92
2022-11-29T05:23:37.446Z,20.23
2022-11-29T05:26:51.726Z,16.23
2022-11-29T05:29:34.342Z,20.67
2022-11-29T05:32:07.210Z,22.65
2022-11-29T05:34:37.194Z,19.30
2022-11-29T05:37:26.934Z,21.27
2022-11-29T05:40:20.496Z,26.50
2022-11-29T05:43:06.757Z,24.42
2022-11-29T05:46:00.725Z,15.50
2022-11-29T05:49:06.354Z,18.15
2022-11-29T05:54:23.734Z,21.98
2022-11-29T05:57:13.039Z,22.58
2022-11-29T05:59:41.736Z,23.13
2022-11-29T06:02:23.670Z,23.52
2022-11-29T06:05:28.555Z,24.65
2022-11-29T06:08:05.229Z,30.67
2022-11-29T06:10:36.502Z,21.15
2022-11-29T06:13:18.785Z,19.30
2022-11-29T06:16:04.964Z,27.35
2022-11-29T06:19:09.091Z,38.92
2022-11-29T06:21:52.412Z,25.30
2022-11-29T06:24:56.516Z,30.55
2022-11-29T06:27:32.331Z,23.88
2022-11-29T06:30:09.222Z,20.48
2022-11-29T06:32:42.183Z,19.67
2022-11-29T06:35:36.290Z,21.83
2022-11-29T06:38:24.863Z,33.33
2022-11-29T06:40:57.223Z,22.08
2022-11-29T06:43:27.427Z,24.38
2022-11-29T06:46:11.225Z,22.48
2022-11-29T06:48:49.527Z,20.35
2022-11-29T06:51:44.781Z,16.73
2022-11-29T06:54:41.023Z,17.38
2022-11-29T06:57:38.407Z,22.33
2022-11-29T07:00:20.879Z,24.48
2022-11-29T07:03:06.572Z,24.52
2022-11-29T07:05:36.889Z,20.25
2022-11-29T07:08:17.461Z,32.53
2022-11-29T07:10:44.990Z,21.90
2022-11-29T07:13:13.561Z,22.80
2022-11-29T07:16:02.343Z,18.45
2022-11-29T07:18:37.983Z,18.20
2022-11-29T07:21:29.051Z,23.77
2022-11-29T07:24:22.568Z,36.00
2022-11-29T07:27:24.590Z,25.08
2022-11-29T07:30:15.332Z,24.15
2022-11-29T07:32:51.351Z,25.02
2022-11-29T07:35:32.303Z,24.35
2022-11-29T07:38:24.078Z,22.50
2022-11-29T07:41:09.170Z,23.45
2022-11-29T07:43:42.443Z,25.13
2022-11-29T07:46:09.429Z,21.20
2022-11-29T07:48:36.393Z,23.95
2022-11-29T07:51:03.507Z,26.67
2022-11-29T07:53:30.600Z,21.30
2022-11-29T07:55:58.589Z,16.48
2022-11-29T07:58:25.587Z,28.20
2022-11-29T08:00:52.521Z,27.98
2022-11-29T08:03:19.378Z,27.67
2022-11-29T08:05:47.707Z,18.90
2022-11-29T08:08:15.091Z,22.17
2022-11-29T08:10:41.999Z,25.73
2022-11-29T08:13:08.834Z,22.65
2022-11-29T08:15:35.730Z,24.00
2022-11-29T08:18:03.463Z,17.50
2022-11-29T08:20:30.288Z,20.77
2022-11-29T08:22:59.371Z,19.60
2022-11-29T08:25:27.450Z,17.63
2022-11-29T08:27:54.827Z,36.35
2022-11-29T08:30:22.431Z,25.20
2022-11-29T08:32:51.707Z,31.90
2022-11-29T08:35:20.603Z,32.88
2022-11-29T08:37:47.625Z,24.35
2022-11-29T08:40:14.670Z,26.92
2022-11-29T08:42:41.542Z,22.15
2022-11-29T08:45:09.720Z,20.17
2022-11-29T08:47:36.935Z,19.85
2022-11-29T08:50:12.320Z,22.58
2022-11-29T08:53:03.423Z,20.05
2022-11-29T08:55:48.477Z,19.10
2022-11-29T08:58:16.094Z,17.58
2022-11-29T09:00:46.534Z,17.05
2022-11-29T09:03:31.955Z,16.80
2022-11-29T09:05:59.692Z,23.83
2022-11-29T09:08:26.623Z,15.65
2022-11-29T09:10:56.828Z,17.35
2022-11-29T09:13:23.748Z,22.25
2022-11-29T09:15:50.629Z,14.35
2022-11-29T09:18:17.475Z,13.68
2022-11-29T09:20:44.696Z,20.63
2022-11-29T09:23:13.048Z,14.30
2022-11-29T09:25:39.924Z,14.82
2022-11-29T09:28:07.545Z,27.02
2022-11-29T09:30:36.574Z,18.63
2022-11-29T09:33:05.073Z,20.55
2022-11-29T09:35:32.901Z,20.90
2022-11-29T09:37:59.703Z,20.00
2022-11-29T09:40:42.534Z,15.30
2022-11-29T09:43:28.432Z,11.38
2022-11-29T09:46:19.544Z,18.00
2022-11-29T09:49:23.372Z,15.70
2022-11-29T09:52:29.084Z,19.17
2022-11-29T09:55:14.188Z,16.48
2022-11-29T09:57:43.997Z,20.10
2022-11-29T10:00:22.166Z,17.17
2022-11-29T10:02:59.389Z,12.20
2022-11-29T10:05:31.637Z,14.35
2022-11-29T10:08:00.762Z,18.58
2022-11-29T10:10:43.238Z,17.83
2022-11-29T10:13:25.960Z,21.73
2022-11-29T10:16:09.696Z,22.27
2022-11-29T10:18:44.289Z,15.30
2022-11-29T10:21:27.968Z,20.13
2022-11-29T10:23:57.704Z,23.45
2022-11-29T10:26:25.910Z,21.02
2022-11-29T10:28:57.558Z,15.27
2022-11-29T10:31:27.179Z,27.25
2022-11-29T10:33:56.147Z,20.90
2022-11-29T10:36:33.150Z,20.92
2022-11-29T10:39:14.429Z,30.10
2022-11-29T10:41:41.896Z,22.08
2022-11-29T10:44:14.666Z,22.40
2022-11-29T10:46:41.715Z,22.52
2022-11-29T10:49:15.186Z,18.67
2022-11-29T10:51:42.123Z,30.85
2022-11-29T10:54:29.959Z,13.70
2022-11-29T10:57:01.216Z,19.65
2022-11-29T10:59:30.637Z,20.13
2022-11-29T11:01:57.985Z,26.50
2022-11-29T11:04:44.401Z,22.52
2022-11-29T11:07:40.499Z,18.77
2022-11-29T11:10:29.392Z,20.25
2022-11-29T11:13:07.057Z,19.15
2022-11-29T11:15:34.504Z,14.77
2022-11-29T11:18:06.717Z,23.00
2022-11-29T11:20:41.135Z,20.67
2022-11-29T11:23:31.654Z,20.45
2022-11-29T11:26:07.965Z,14.55
2022-11-29T11:29:00.249Z,18.33
2022-11-29T11:31:29.086Z,15.25
2022-11-29T11:33:56.193Z,17.08
2022-11-29T11:36:26.451Z,11.35
2022-11-29T11:38:58.323Z,17.83
2022-11-29T11:41:53.884Z,12.43
2022-11-29T11:44:53.649Z,14.10
2022-11-29T11:47:27.429Z,17.92
2022-11-29T11:50:03.856Z,13.63
2022-11-29T11:52:54.815Z,11.38
2022-11-29T11:55:21.759Z,12.05
2022-11-29T11:58:09.894Z,15.25
2022-11-29T12:03:57.432Z,14.18
2022-11-29T12:06:30.133Z,10.68
2022-11-29T12:09:09.860Z,13.07
2022-11-29T12:11:56.080Z,11.20
2022-11-29T12:14:36.724Z,10.77
2022-11-29T12:17:20.906Z,11.38
2022-11-29T12:19:58.286Z,15.50
2022-11-29T12:22:31.906Z,11.05
2022-11-29T12:25:04.911Z,7.80
2022-11-29T12:27:32.068Z,12.98
2022-11-29T12:29:58.989Z,19.23
2022-11-29T12:32:40.008Z,13.80
2022-11-29T12:35:25.699Z,8.65
2022-11-29T12:38:09.086Z,19.88
2022-11-29T12:40:50.965Z,15.48
2022-11-29T12:43:31.132Z,21.13
2022-11-29T12:46:15.235Z,14.52
2022-11-29T12:48:45.003Z,15.90
2022-11-29T12:51:33.461Z,12.55
2022-11-29T12:54:19.727Z,6.97
2022-11-29T12:57:01.636Z,17.73
2022-11-29T12:59:43.580Z,13.30
2022-11-29T13:02:25.902Z,13.35
2022-11-29T13:05:15.835Z,11.10
2022-11-29T13:08:01.566Z,7.47
2022-11-29T13:10:31.400Z,10.43
2022-11-29T13:13:15.990Z,11.80
2022-11-29T13:15:46.832Z,10.68
2022-11-29T13:19:05.350Z,6.03
2022-11-29T13:21:55.106Z,9.02
2022-11-29T13:24:36.072Z,7.97
2022-11-29T13:27:07.272Z,19.88
2022-11-29T13:29:34.776Z,8.43
2022-11-29T13:32:05.588Z,6.03
2022-11-29T13:34:45.497Z,9.40
2022-11-29T13:37:28.008Z,13.77
2022-11-29T13:40:16.819Z,13.55
2022-11-29T13:43:05.459Z,18.77
2022-11-29T13:45:44.912Z,9.70
2022-11-29T13:48:49.272Z,7.97
2022-11-29T13:51:24.143Z,20.92
2022-11-29T13:53:52.035Z,9.00
2022-11-29T13:56:33.464Z,14.20
2022-11-29T13:59:03.568Z,13.68
2022-11-29T14:01:42.296Z,7.05
2022-11-29T14:04:27.398Z,12.82
2022-11-29T14:07:14.417Z,14.30
2022-11-29T14:09:50.238Z,21.25
2022-11-29T14:12:38.404Z,16.70
2022-11-29T14:15:11.207Z,17.20
2022-11-29T14:17:51.959Z,16.42
2022-11-29T14:20:25.242Z,16.75
2022-11-29T14:23:04.245Z,14.80
2022-11-29T14:25:51.833Z,13.75
2022-11-29T14:28:21.980Z,15.52
2022-11-29T14:31:03.204Z,14.15
2022-11-29T14:33:54.662Z,12.48
2022-11-29T14:36:38.216Z,8.85
2022-11-29T14:39:20.147Z,7.43
2022-11-29T14:42:18.637Z,14.63
2022-11-29T14:44:52.553Z,15.02
2022-11-29T14:47:25.582Z,15.00
2022-11-29T14:49:55.575Z,13.57
2022-11-29T14:52:29.230Z,8.10
2022-11-29T14:54:59.426Z,10.90
2022-11-29T14:57:48.258Z,10.48
2022-11-29T15:00:16.058Z,13.00
2022-11-29T15:02:48.406Z,9.20
2022-11-29T15:05:21.704Z,6.65
2022-11-29T15:08:06.654Z,13.65
2022-11-29T15:10:50.127Z,8.60
2022-11-29T15:13:23.827Z,13.10
2022-11-29T15:16:07.457Z,8.30
2022-11-29T15:18:54.899Z,7.60
2022-11-29T15:21:48.071Z,7.40
2022-11-29T15:24:17.119Z,9.77
2022-11-29T15:27:01.365Z,7.43
2022-11-29T15:29:29.648Z,10.65
2022-11-29T15:32:05.279Z,7.07
2022-11-29T15:34:45.303Z,7.85
2022-11-29T15:37:30.826Z,12.88
2022-11-29T15:40:11.530Z,11.10
2022-11-29T15:42:51.370Z,12.35
2022-11-29T15:45:28.992Z,9.10
2022-11-29T15:48:10.648Z,12.35
2022-11-29T15:50:39.003Z,6.28
2022-11-29T15:53:08.831Z,6.93
2022-11-29T15:55:36.260Z,8.80
2022-11-29T15:58:08.702Z,11.90
2022-11-29T16:00:36.739Z,10.30
2022-11-29T16:03:05.219Z,10.88
2022-11-29T16:05:35.078Z,8.18
2022-11-29T16:08:05.729Z,10.63
2022-11-29T16:10:37.272Z,15.93
2022-11-29T16:13:28.190Z,10.52
2022-11-29T16:16:09.749Z,10.00
2022-11-29T16:18:38.194Z,8.52
2022-11-29T16:21:07.005Z,9.30
2022-11-29T16:23:42.848Z,10.25
2022-11-29T16:26:37.775Z,15.98
2022-11-29T16:29:05.034Z,10.48
2022-11-29T16:31:37.056Z,11.13
2022-11-29T16:34:31.194Z,10.77
2022-11-29T16:37:16.016Z,13.55
2022-11-29T16:42:20.603Z,16.95
2022-11-29T16:45:03.305Z,11.77
2022-11-29T16:47:53.022Z,18.23
2022-11-29T16:50:22.579Z,14.52
2022-11-29T16:52:53.447Z,12.88
2022-11-29T16:55:23.863Z,13.43
2022-11-29T16:57:52.057Z,13.45
2022-11-29T17:00:28.953Z,17.70
2022-11-29T17:02:55.846Z,14.45
2022-11-29T17:05:22.718Z,16.40
2022-11-29T17:07:50.586Z,12.68
2022-11-29T17:10:22.656Z,12.98
2022-11-29T17:12:50.406Z,12.77
2022-11-29T17:15:17.302Z,16.02
2022-11-29T17:17:44.099Z,16.20
2022-11-29T17:20:12.425Z,14.02
2022-11-29T17:22:39.463Z,15.30
2022-11-29T17:25:06.886Z,17.73
2022-11-29T17:27:33.684Z,14.65
2022-11-29T17:30:00.498Z,19.08
2022-11-29T17:32:27.364Z,17.98
2022-11-29T17:34:54.594Z,14.88
2022-11-29T17:37:21.401Z,12.98
2022-11-29T17:39:49.138Z,12.93
2022-11-29T17:42:16.183Z,16.88
2022-11-29T17:44:43.060Z,17.10
2022-11-29T17:47:09.890Z,16.55
2022-11-29T17:49:36.694Z,22.05
2022-11-29T17:52:03.991Z,17.20
2022-11-29T17:54:33.020Z,12.32
2022-11-29T17:57:00.959Z,15.65
2022-11-29T17:59:27.779Z,14.65
2022-11-29T18:01:54.633Z,13.95
2022-11-29T18:04:21.556Z,14.05
2022-11-29T18:06:51.573Z,11.43
2022-11-29T18:09:19.569Z,13.02
2022-11-29T18:11:49.638Z,11.63
2022-11-29T18:14:20.294Z,12.30
2022-11-29T18:16:47.423Z,15.05
2022-11-29T18:19:17.227Z,13.35
2022-11-29T18:21:44.439Z,16.30
2022-11-29T18:24:11.499Z,10.45
2022-11-29T18:26:38.730Z,12.25
2022-11-29T18:29:06.819Z,14.88
2022-11-29T18:31:35.941Z,18.30
2022-11-29T18:34:07.258Z,17.42
2022-11-29T18:36:36.735Z,21.92
2022-11-29T18:39:14.226Z,15.70
2022-11-29T18:41:43.662Z,18.67
2022-11-29T18:44:13.030Z,13.00
2022-11-29T18:46:41.611Z,14.95
2022-11-29T18:49:12.111Z,14.65
2022-11-29T18:51:39.870Z,15.38
2022-11-29T18:54:06.744Z,14.93
2022-11-29T18:56:35.158Z,13.02
2022-11-29T18:59:09.584Z,16.48
2022-11-29T19:04:09.625Z,17.40
2022-11-29T19:06:40.033Z,12.55
2022-11-29T19:09:11.497Z,14.98
2022-11-29T19:11:38.852Z,13.75
2022-11-29T19:14:11.467Z,31.90
2022-11-29T19:16:41.407Z,12.77
2022-11-29T19:19:08.488Z,12.18
2022-11-29T19:21:35.538Z,14.68
2022-11-29T19:24:05.418Z,15.20
2022-11-29T19:26:32.931Z,16.83
2022-11-29T19:29:00.888Z,17.90
2022-11-29T19:31:28.466Z,15.02
2022-11-29T19:33:56.098Z,17.15
2022-11-29T19:36:25.859Z,19.67
2022-11-29T19:38:54.326Z,13.70
2022-11-29T19:41:22.913Z,17.08
2022-11-29T19:43:50.249Z,16.10
2022-11-29T19:46:22.548Z,17.05
2022-11-29T19:48:51.424Z,13.27
2022-11-29T19:51:18.822Z,13.73
2022-11-29T19:53:47.145Z,19.45
2022-11-29T19:56:17.635Z,15.70
2022-11-29T19:58:44.616Z,16.52
2022-11-29T20:01:18.073Z,19.58
2022-11-29T20:03:45.225Z,18.43
2022-11-29T20:06:13.622Z,15.65
2022-11-29T20:08:41.151Z,19.02
2022-11-29T20:11:10.194Z,14.43
2022-11-29T20:13:41.784Z,13.40
2022-11-29T20:16:11.328Z,14.50
2022-11-29T20:18:41.229Z,15.35
2022-11-29T20:21:13.307Z,18.90
2022-11-29T20:23:41.740Z,19.52
2022-11-29T20:26:23.331Z,17.50
2022-11-29T20:28:50.430Z,18.88
2022-11-29T20:31:21.418Z,17.73
2022-11-29T20:33:48.825Z,17.77
2022-11-29T20:36:28.881Z,19.85
2022-11-29T20:39:14.381Z,18.02
2022-11-29T20:41:59.587Z,20.40
2022-11-29T20:44:57.110Z,16.88
2022-11-29T20:47:26.290Z,18.15
2022-11-29T20:49:53.538Z,17.83
2022-11-29T20:52:42.772Z,20.13
2022-11-29T20:55:09.633Z,21.42
2022-11-29T20:57:38.393Z,20.73
2022-11-29T21:00:11.861Z,19.50
2022-11-29T21:02:39.274Z,19.40
2022-11-29T21:05:06.652Z,19.02
2022-11-29T21:07:33.658Z,17.65
2022-11-29T21:10:01.560Z,22.52
2022-11-29T21:12:30.264Z,20.33
2022-11-29T21:14:57.809Z,15.07
2022-11-29T21:17:30.270Z,15.48
2022-11-29T21:20:00.459Z,15.85
2022-11-29T21:23:01.487Z,15.50
2022-11-29T21:25:44.836Z,14.48
2022-11-29T21:28:14.922Z,17.02
2022-11-29T21:30:42.806Z,16.08
2022-11-29T21:33:10.596Z,17.63
2022-11-29T21:35:41.110Z,18.13
2022-11-29T21:38:14.416Z,20.08
2022-11-29T21:40:41.225Z,21.90
2022-11-29T21:43:08.202Z,19.83
2022-11-29T21:45:35.035Z,19.73
2022-11-29T21:48:01.852Z,18.83
2022-11-29T21:50:28.685Z,23.20
2022-11-29T21:52:55.501Z,23.02
2022-11-29T21:55:22.319Z,20.17
2022-11-29T21:57:49.170Z,20.70
2022-11-29T22:00:16.491Z,20.23
2022-11-29T22:02:43.651Z,22.30
2022-11-29T22:05:10.681Z,27.33
2022-11-29T22:07:37.560Z,30.48
2022-11-29T22:10:11.676Z,25.40
2022-11-29T22:12:49.385Z,22.13
2022-11-29T22:15:24.150Z,24.65
2022-11-29T22:17:51.189Z,28.65
2022-11-29T22:20:18.003Z,22.30
2022-11-29T22:22:45.350Z,20.20
2022-11-29T22:25:12.136Z,22.52
2022-11-29T22:27:38.962Z,19.67
2022-11-29T22:30:06.931Z,33.65
2022-11-29T22:32:34.520Z,19.88
2022-11-29T22:35:03.218Z,23.02
2022-11-29T22:37:32.809Z,19.40
2022-11-29T22:39:59.607Z,20.27
2022-11-29T22:42:26.394Z,15.55
2022-11-29T22:44:53.310Z,17.92
2022-11-29T22:47:20.103Z,17.25
2022-11-29T22:49:49.138Z,15.82
2022-11-29T22:52:16.054Z,18.38
2022-11-29T22:54:42.790Z,16.17
2022-11-29T22:57:10.006Z,15.07
2022-11-29T22:59:36.848Z,19.45
2022-11-29T23:02:03.753Z,19.15
2022-11-29T23:04:30.561Z,18.50
2022-11-29T23:06:57.333Z,16.38
2022-11-29T23:09:24.159Z,23.77
2022-11-29T23:11:56.208Z,24.60
2022-11-29T23:14:24.134Z,18.42
2022-11-29T23:16:51.481Z,17.70
2022-11-29T23:19:18.587Z,18.77
2022-11-29T23:21:46.257Z,22.65
2022-11-29T23:24:14.958Z,23.60
2022-11-29T23:26:45.623Z,25.25
2022-11-29T23:29:15.961Z,25.73
2022-11-29T23:31:43.386Z,20.98
2022-11-29T23:34:10.356Z,23.10
2022-11-29T23:36:37.169Z,20.83
2022-11-29T23:39:05.667Z,20.67
2022-11-29T23:41:33.309Z,25.77
2022-11-29T23:44:00.102Z,21.98
2022-11-29T23:46:27.161Z,20.15
2022-11-29T23:48:54.314Z,24.27
2022-11-29T23:51:21.384Z,21.92
2022-11-29T23:53:53.188Z,23.35
2022-11-29T23:56:21.224Z,21.33
2022-11-29T23:58:48.409Z,22.65
